THY1588 EDDF-LTFM
Flight info
| Callsign | THY1588 |
|---|---|
| Flight time | 4h 37m |
| Altitude | 31000 |
| Route | CINDY6F/25C CINDY Z74 HAREM DCT ASLEP DCT TAKUT DCT DINKU L603 BESNI/N0491F410 L605 MIQ/N0493F350 DCT ALUTU DCT BIBAG L605 ESEGA DCT VELOM/N0490F410 DCT GOTAR DCT BABIT DCT ESIRI DCT ETIDA T390 RILEX |
| Aircraft | A359/H-SDE2E3GHIJ3J4J5LM1ORWXY/LB1D1 |
Departure
| Time | 2026-05-07 10:15 |
|---|---|
| Airport | Frankfurt Main Airport (EDDF) |
Arrival
| Time | 2026-05-07 14:52 |
|---|---|
| Airport | İstanbul Airport (LTFM) |
| Time | Latitude | Longitude | Altitude | Speed | Heading |
|---|---|---|---|---|---|
| 2026-05-07 10:12 | 50.04348 | 8.58024 | 372 ft | 0 kts | 251° |
| 2026-05-07 10:14 | 50.04347 | 8.58023 | 372 ft | 1 kts | 251° |
| 2026-05-07 10:15 | 50.04268 | 8.57668 | 375 ft | 72 kts | 250° |
| 2026-05-07 10:15 | 50.04013 | 8.56601 | 370 ft | 137 kts | 249° |
| 2026-05-07 10:15 | 50.03615 | 8.54961 | 523 ft | 176 kts | 251° |
| 2026-05-07 10:15 | 50.03153 | 8.53274 | 1455 ft | 168 kts | 248° |
| 2026-05-07 10:16 | 50.02608 | 8.51529 | 1826 ft | 196 kts | 245° |
| 2026-05-07 10:16 | 50.01643 | 8.49867 | 2214 ft | 220 kts | 209° |
| 2026-05-07 10:16 | 50.00198 | 8.49114 | 3110 ft | 221 kts | 191° |
| 2026-05-07 10:16 | 49.98664 | 8.49246 | 3877 ft | 226 kts | 162° |
| 2026-05-07 10:17 | 49.97370 | 8.50617 | 4551 ft | 228 kts | 128° |
| 2026-05-07 10:17 | 49.96525 | 8.52657 | 5098 ft | 229 kts | 117° |
| 2026-05-07 10:17 | 49.95760 | 8.54903 | 5624 ft | 248 kts | 116° |
| 2026-05-07 10:17 | 49.94943 | 8.57415 | 6062 ft | 268 kts | 115° |
| 2026-05-07 10:18 | 49.94167 | 8.60031 | 6926 ft | 270 kts | 111° |
| 2026-05-07 10:18 | 49.93722 | 8.62917 | 7563 ft | 279 kts | 92° |
| 2026-05-07 10:18 | 49.93789 | 8.65907 | 8602 ft | 276 kts | 83° |
| 2026-05-07 10:18 | 49.93558 | 8.68922 | 9365 ft | 290 kts | 109° |
| 2026-05-07 10:19 | 49.92433 | 8.71543 | 10122 ft | 299 kts | 135° |
| 2026-05-07 10:19 | 49.90712 | 8.73574 | 10365 ft | 327 kts | 150° |
| 2026-05-07 10:19 | 49.88677 | 8.75417 | 10724 ft | 348 kts | 144° |
| 2026-05-07 10:19 | 49.86955 | 8.78157 | 11228 ft | 362 kts | 122° |
| 2026-05-07 10:20 | 49.85785 | 8.81645 | 11975 ft | 368 kts | 115° |
| 2026-05-07 10:20 | 49.84658 | 8.85258 | 12745 ft | 375 kts | 116° |
| 2026-05-07 10:20 | 49.83461 | 8.88868 | 13580 ft | 379 kts | 117° |
| 2026-05-07 10:20 | 49.82212 | 8.92478 | 14366 ft | 382 kts | 118° |
| 2026-05-07 10:21 | 49.80952 | 8.96036 | 15093 ft | 386 kts | 119° |
| 2026-05-07 10:21 | 49.79632 | 8.99713 | 15804 ft | 390 kts | 119° |
| 2026-05-07 10:21 | 49.78320 | 9.03337 | 16505 ft | 394 kts | 119° |
| 2026-05-07 10:21 | 49.76969 | 9.07074 | 17263 ft | 398 kts | 118° |
| 2026-05-07 10:22 | 49.75903 | 9.11045 | 17958 ft | 404 kts | 106° |
| 2026-05-07 10:22 | 49.75169 | 9.15206 | 18671 ft | 407 kts | 106° |
| 2026-05-07 10:22 | 49.74091 | 9.19281 | 19299 ft | 412 kts | 120° |
| 2026-05-07 10:22 | 49.72469 | 9.22961 | 19964 ft | 416 kts | 128° |
| 2026-05-07 10:23 | 49.70632 | 9.26443 | 20629 ft | 421 kts | 131° |
| 2026-05-07 10:23 | 49.68676 | 9.29850 | 21283 ft | 425 kts | 133° |
| 2026-05-07 10:23 | 49.66665 | 9.33252 | 21918 ft | 430 kts | 133° |
| 2026-05-07 10:23 | 49.64639 | 9.36679 | 22558 ft | 435 kts | 133° |
| 2026-05-07 10:24 | 49.62760 | 9.40361 | 23185 ft | 439 kts | 123° |
| 2026-05-07 10:24 | 49.61304 | 9.44523 | 23775 ft | 444 kts | 113° |
| 2026-05-07 10:24 | 49.60147 | 9.48956 | 24339 ft | 447 kts | 109° |
| 2026-05-07 10:24 | 49.59112 | 9.53504 | 24928 ft | 449 kts | 107° |
| 2026-05-07 10:25 | 49.58142 | 9.58086 | 25489 ft | 452 kts | 107° |
| 2026-05-07 10:25 | 49.57186 | 9.62707 | 26057 ft | 455 kts | 107° |
| 2026-05-07 10:25 | 49.56219 | 9.67367 | 26588 ft | 458 kts | 107° |
| 2026-05-07 10:25 | 49.55233 | 9.72057 | 27140 ft | 462 kts | 107° |
| 2026-05-07 10:26 | 49.54250 | 9.76659 | 27686 ft | 464 kts | 107° |
| 2026-05-07 10:26 | 49.53058 | 9.81303 | 28259 ft | 468 kts | 114° |
| 2026-05-07 10:26 | 49.51424 | 9.85656 | 28794 ft | 472 kts | 124° |
| 2026-05-07 10:26 | 49.49485 | 9.89738 | 29296 ft | 475 kts | 126° |
| 2026-05-07 10:27 | 49.47369 | 9.93880 | 29606 ft | 483 kts | 128° |
| 2026-05-07 10:27 | 49.45256 | 9.97864 | 30052 ft | 487 kts | 128° |
| 2026-05-07 10:27 | 49.43063 | 10.01942 | 30465 ft | 490 kts | 129° |
| 2026-05-07 10:27 | 49.40887 | 10.05981 | 30849 ft | 492 kts | 129° |
| 2026-05-07 10:28 | 49.38727 | 10.10003 | 30975 ft | 495 kts | 129° |
| 2026-05-07 10:28 | 49.34354 | 10.18199 | 30995 ft | 497 kts | 129° |
| 2026-05-07 10:29 | 49.29977 | 10.26402 | 31005 ft | 497 kts | 129° |
| 2026-05-07 10:29 | 49.25590 | 10.34603 | 31018 ft | 497 kts | 129° |
| 2026-05-07 10:30 | 49.18423 | 10.46081 | 31033 ft | 497 kts | 135° |
| 2026-05-07 10:30 | 49.13466 | 10.53440 | 31043 ft | 497 kts | 136° |
| 2026-05-07 10:31 | 49.08522 | 10.60733 | 31043 ft | 497 kts | 136° |
| 2026-05-07 10:31 | 49.03554 | 10.68060 | 31046 ft | 495 kts | 137° |
| 2026-05-07 10:32 | 48.98613 | 10.75324 | 31026 ft | 493 kts | 137° |
| 2026-05-07 10:32 | 48.93655 | 10.82591 | 31032 ft | 494 kts | 137° |
| 2026-05-07 10:33 | 48.88707 | 10.89837 | 31032 ft | 493 kts | 137° |
| 2026-05-07 10:33 | 48.83758 | 10.97072 | 31026 ft | 493 kts | 137° |
| 2026-05-07 10:34 | 48.78847 | 11.04229 | 31022 ft | 490 kts | 138° |
| 2026-05-07 10:34 | 48.73928 | 11.11373 | 31021 ft | 489 kts | 138° |
| 2026-05-07 10:35 | 48.68991 | 11.18499 | 31021 ft | 490 kts | 138° |
| 2026-05-07 10:35 | 48.64686 | 11.26537 | 31367 ft | 496 kts | 122° |
| 2026-05-07 10:36 | 48.63631 | 11.29593 | 31653 ft | 497 kts | 116° |
| 2026-05-07 10:36 | 48.62361 | 11.34484 | 32030 ft | 500 kts | 111° |
| 2026-05-07 10:36 | 48.61232 | 11.39473 | 32387 ft | 502 kts | 111° |
| 2026-05-07 10:36 | 48.59820 | 11.46161 | 32841 ft | 505 kts | 110° |
| 2026-05-07 10:37 | 48.59114 | 11.49581 | 33128 ft | 504 kts | 110° |
| 2026-05-07 10:37 | 48.58070 | 11.54636 | 33571 ft | 504 kts | 110° |
| 2026-05-07 10:37 | 48.57090 | 11.59714 | 33976 ft | 505 kts | 106° |
| 2026-05-07 10:37 | 48.56294 | 11.64814 | 34323 ft | 505 kts | 106° |
| 2026-05-07 10:38 | 48.55520 | 11.69996 | 34650 ft | 505 kts | 105° |
| 2026-05-07 10:38 | 48.54764 | 11.75172 | 34955 ft | 505 kts | 105° |
| 2026-05-07 10:38 | 48.54012 | 11.80360 | 35263 ft | 505 kts | 106° |
| 2026-05-07 10:38 | 48.53261 | 11.85534 | 35574 ft | 505 kts | 106° |
| 2026-05-07 10:39 | 48.52506 | 11.90711 | 35877 ft | 505 kts | 106° |
| 2026-05-07 10:39 | 48.51744 | 11.95897 | 36154 ft | 505 kts | 106° |
| 2026-05-07 10:39 | 48.50980 | 12.01075 | 36426 ft | 506 kts | 106° |
| 2026-05-07 10:39 | 48.50212 | 12.06249 | 36697 ft | 506 kts | 106° |
| 2026-05-07 10:40 | 48.49441 | 12.11428 | 36969 ft | 506 kts | 106° |
| 2026-05-07 10:40 | 48.48664 | 12.16622 | 37243 ft | 506 kts | 106° |
| 2026-05-07 10:40 | 48.47883 | 12.21799 | 37449 ft | 507 kts | 107° |
| 2026-05-07 10:40 | 48.47104 | 12.26934 | 37672 ft | 508 kts | 107° |
| 2026-05-07 10:41 | 48.46315 | 12.32119 | 37932 ft | 508 kts | 107° |
| 2026-05-07 10:41 | 48.45522 | 12.37316 | 38188 ft | 508 kts | 107° |
| 2026-05-07 10:41 | 48.44729 | 12.42505 | 38436 ft | 508 kts | 107° |
| 2026-05-07 10:41 | 48.43934 | 12.47687 | 38687 ft | 508 kts | 107° |
| 2026-05-07 10:42 | 48.43135 | 12.52887 | 38852 ft | 508 kts | 107° |
| 2026-05-07 10:42 | 48.42335 | 12.58069 | 39034 ft | 508 kts | 107° |
| 2026-05-07 10:42 | 48.41533 | 12.63254 | 39213 ft | 508 kts | 107° |
| 2026-05-07 10:42 | 48.40728 | 12.68435 | 39398 ft | 508 kts | 107° |
| 2026-05-07 10:43 | 48.39891 | 12.73604 | 39560 ft | 507 kts | 109° |
| 2026-05-07 10:43 | 48.38835 | 12.78649 | 39724 ft | 506 kts | 111° |
| 2026-05-07 10:43 | 48.37717 | 12.83664 | 39891 ft | 505 kts | 112° |
| 2026-05-07 10:43 | 48.36568 | 12.88670 | 40049 ft | 505 kts | 112° |
| 2026-05-07 10:44 | 48.35420 | 12.93595 | 40210 ft | 505 kts | 112° |
| 2026-05-07 10:44 | 48.34250 | 12.98580 | 40363 ft | 505 kts | 112° |
| 2026-05-07 10:44 | 48.33064 | 13.03624 | 40477 ft | 506 kts | 112° |
| 2026-05-07 10:44 | 48.31903 | 13.08557 | 40597 ft | 506 kts | 112° |
| 2026-05-07 10:45 | 48.30732 | 13.13535 | 40749 ft | 506 kts | 112° |
| 2026-05-07 10:45 | 48.29558 | 13.18524 | 40900 ft | 506 kts | 112° |
| 2026-05-07 10:45 | 48.27213 | 13.28484 | 40999 ft | 507 kts | 112° |
| 2026-05-07 10:46 | 48.24853 | 13.38440 | 40999 ft | 506 kts | 112° |
| 2026-05-07 10:46 | 48.22384 | 13.48365 | 41001 ft | 504 kts | 118° |
| 2026-05-07 10:47 | 48.18946 | 13.57435 | 41001 ft | 500 kts | 125° |
| 2026-05-07 10:47 | 48.15220 | 13.66187 | 41004 ft | 500 kts | 126° |
| 2026-05-07 10:48 | 48.11433 | 13.74901 | 41004 ft | 500 kts | 126° |
| 2026-05-07 10:48 | 48.07644 | 13.83632 | 41006 ft | 499 kts | 127° |
| 2026-05-07 10:49 | 48.03868 | 13.92343 | 41003 ft | 499 kts | 127° |
| 2026-05-07 10:49 | 48.00093 | 14.01041 | 41003 ft | 499 kts | 127° |
| 2026-05-07 10:50 | 47.96313 | 14.09721 | 41005 ft | 499 kts | 127° |
| 2026-05-07 10:50 | 47.92518 | 14.18406 | 40990 ft | 499 kts | 127° |
| 2026-05-07 10:51 | 47.88742 | 14.27019 | 41005 ft | 499 kts | 127° |
| 2026-05-07 10:51 | 47.84911 | 14.35732 | 41002 ft | 499 kts | 127° |
| 2026-05-07 10:52 | 47.81119 | 14.44326 | 41001 ft | 499 kts | 127° |
| 2026-05-07 10:52 | 47.77297 | 14.52965 | 40990 ft | 499 kts | 127° |
| 2026-05-07 10:53 | 47.73473 | 14.61578 | 40996 ft | 498 kts | 127° |
| 2026-05-07 10:53 | 47.69644 | 14.70175 | 40981 ft | 498 kts | 127° |
| 2026-05-07 10:54 | 47.65836 | 14.78698 | 40979 ft | 498 kts | 127° |
| 2026-05-07 10:54 | 47.61997 | 14.87267 | 40977 ft | 499 kts | 127° |
| 2026-05-07 10:55 | 47.58149 | 14.95826 | 40967 ft | 498 kts | 127° |
| 2026-05-07 10:55 | 47.54301 | 15.04357 | 40965 ft | 498 kts | 128° |
| 2026-05-07 10:56 | 47.50456 | 15.12865 | 40964 ft | 497 kts | 128° |
| 2026-05-07 10:56 | 47.46595 | 15.21369 | 40959 ft | 497 kts | 128° |
| 2026-05-07 10:57 | 47.42756 | 15.29800 | 40952 ft | 497 kts | 128° |
| 2026-05-07 10:57 | 47.38891 | 15.38265 | 40946 ft | 497 kts | 128° |
| 2026-05-07 10:58 | 47.35019 | 15.46717 | 40957 ft | 498 kts | 128° |
| 2026-05-07 10:58 | 47.31133 | 15.55175 | 40948 ft | 498 kts | 128° |
| 2026-05-07 10:59 | 47.27243 | 15.63617 | 40954 ft | 498 kts | 128° |
| 2026-05-07 10:59 | 47.23346 | 15.72049 | 40955 ft | 498 kts | 128° |
| 2026-05-07 11:00 | 47.19436 | 15.80481 | 40960 ft | 498 kts | 128° |
| 2026-05-07 11:00 | 47.15525 | 15.88890 | 40961 ft | 498 kts | 128° |
| 2026-05-07 11:01 | 47.11605 | 15.97294 | 40963 ft | 499 kts | 128° |
| 2026-05-07 11:01 | 47.07676 | 16.05692 | 40968 ft | 499 kts | 129° |
| 2026-05-07 11:02 | 47.03738 | 16.14082 | 40975 ft | 499 kts | 129° |
| 2026-05-07 11:02 | 46.99856 | 16.22532 | 40975 ft | 502 kts | 124° |
| 2026-05-07 11:03 | 46.96395 | 16.31434 | 40982 ft | 503 kts | 123° |
| 2026-05-07 11:03 | 46.93015 | 16.40405 | 40983 ft | 503 kts | 123° |
| 2026-05-07 11:04 | 46.89641 | 16.49378 | 40982 ft | 503 kts | 123° |
| 2026-05-07 11:04 | 46.86255 | 16.58325 | 40987 ft | 503 kts | 123° |
| 2026-05-07 11:05 | 46.82862 | 16.67243 | 40993 ft | 502 kts | 123° |
| 2026-05-07 11:05 | 46.79483 | 16.76090 | 40997 ft | 502 kts | 123° |
| 2026-05-07 11:06 | 46.76079 | 16.84971 | 41005 ft | 502 kts | 123° |
| 2026-05-07 11:06 | 46.72664 | 16.93856 | 41017 ft | 502 kts | 123° |
| 2026-05-07 11:07 | 46.69241 | 17.02730 | 41017 ft | 501 kts | 123° |
| 2026-05-07 11:07 | 46.65838 | 17.11524 | 41030 ft | 501 kts | 123° |
| 2026-05-07 11:08 | 46.62408 | 17.20362 | 41013 ft | 501 kts | 123° |
| 2026-05-07 11:08 | 46.58971 | 17.29187 | 41020 ft | 501 kts | 123° |
| 2026-05-07 11:09 | 46.55537 | 17.37976 | 41019 ft | 500 kts | 123° |
| 2026-05-07 11:09 | 46.52089 | 17.46769 | 41024 ft | 500 kts | 123° |
| 2026-05-07 11:10 | 46.48637 | 17.55549 | 41025 ft | 500 kts | 123° |
| 2026-05-07 11:10 | 46.45186 | 17.64299 | 41024 ft | 498 kts | 123° |
| 2026-05-07 11:11 | 46.41743 | 17.72999 | 41026 ft | 497 kts | 124° |
| 2026-05-07 11:11 | 46.38316 | 17.81629 | 41028 ft | 498 kts | 124° |
| 2026-05-07 11:12 | 46.34854 | 17.90318 | 41029 ft | 499 kts | 124° |
| 2026-05-07 11:12 | 46.31380 | 17.99015 | 41028 ft | 497 kts | 124° |
| 2026-05-07 11:13 | 46.27910 | 18.07672 | 41032 ft | 497 kts | 124° |
| 2026-05-07 11:13 | 46.24435 | 18.16313 | 41035 ft | 497 kts | 124° |
| 2026-05-07 11:14 | 46.20954 | 18.24942 | 41020 ft | 497 kts | 124° |
| 2026-05-07 11:14 | 46.17470 | 18.33555 | 41050 ft | 495 kts | 124° |
| 2026-05-07 11:15 | 46.13988 | 18.42135 | 41049 ft | 495 kts | 124° |
| 2026-05-07 11:15 | 46.10522 | 18.50648 | 41049 ft | 495 kts | 124° |
| 2026-05-07 11:16 | 46.07030 | 18.59200 | 41030 ft | 495 kts | 124° |
| 2026-05-07 11:16 | 46.04105 | 18.66340 | 41030 ft | 495 kts | 124° |
| 2026-05-07 11:17 | 46.00596 | 18.74884 | 41031 ft | 495 kts | 124° |
| 2026-05-07 11:17 | 45.97112 | 18.83341 | 41023 ft | 495 kts | 124° |
| 2026-05-07 11:18 | 45.93529 | 18.91790 | 41012 ft | 492 kts | 129° |
| 2026-05-07 11:18 | 45.89242 | 18.99416 | 41025 ft | 489 kts | 134° |
| 2026-05-07 11:19 | 45.84783 | 19.06779 | 41026 ft | 489 kts | 135° |
| 2026-05-07 11:19 | 45.80287 | 19.14098 | 41026 ft | 489 kts | 135° |
| 2026-05-07 11:20 | 45.75791 | 19.21423 | 41017 ft | 489 kts | 135° |
| 2026-05-07 11:20 | 45.71306 | 19.28735 | 41026 ft | 489 kts | 135° |
| 2026-05-07 11:21 | 45.68051 | 19.34035 | 41024 ft | 490 kts | 135° |
| 2026-05-07 11:21 | 45.63546 | 19.41354 | 41023 ft | 490 kts | 135° |
| 2026-05-07 11:22 | 45.59040 | 19.48657 | 41026 ft | 490 kts | 135° |
| 2026-05-07 11:22 | 45.54551 | 19.55910 | 41026 ft | 490 kts | 135° |
| 2026-05-07 11:23 | 45.50034 | 19.63189 | 41026 ft | 490 kts | 135° |
| 2026-05-07 11:23 | 45.45511 | 19.70459 | 41027 ft | 490 kts | 135° |
| 2026-05-07 11:24 | 45.40985 | 19.77714 | 41011 ft | 490 kts | 135° |
| 2026-05-07 11:24 | 45.36444 | 19.84975 | 41026 ft | 491 kts | 135° |
| 2026-05-07 11:25 | 45.31893 | 19.92232 | 41026 ft | 491 kts | 135° |
| 2026-05-07 11:25 | 45.27370 | 19.99427 | 41026 ft | 491 kts | 135° |
| 2026-05-07 11:26 | 45.22813 | 20.06656 | 41018 ft | 491 kts | 135° |
| 2026-05-07 11:26 | 45.18249 | 20.13878 | 41025 ft | 491 kts | 135° |
| 2026-05-07 11:27 | 45.13678 | 20.21092 | 41020 ft | 492 kts | 135° |
| 2026-05-07 11:27 | 45.09097 | 20.28302 | 41027 ft | 492 kts | 135° |
| 2026-05-07 11:28 | 45.04511 | 20.35503 | 41022 ft | 493 kts | 135° |
| 2026-05-07 11:28 | 44.99917 | 20.42697 | 41045 ft | 493 kts | 135° |
| 2026-05-07 11:29 | 44.95346 | 20.49837 | 41041 ft | 493 kts | 135° |
| 2026-05-07 11:29 | 44.90713 | 20.57056 | 41041 ft | 493 kts | 135° |
| 2026-05-07 11:30 | 44.86102 | 20.64220 | 41027 ft | 493 kts | 136° |
| 2026-05-07 11:30 | 44.81485 | 20.71376 | 41033 ft | 493 kts | 136° |
| 2026-05-07 11:31 | 44.76892 | 20.78476 | 41033 ft | 493 kts | 136° |
| 2026-05-07 11:31 | 44.72268 | 20.85607 | 41035 ft | 493 kts | 136° |
| 2026-05-07 11:32 | 44.65321 | 20.96285 | 41029 ft | 493 kts | 136° |
| 2026-05-07 11:33 | 44.60687 | 21.03386 | 41031 ft | 493 kts | 136° |
| 2026-05-07 11:33 | 44.56051 | 21.10470 | 41046 ft | 493 kts | 136° |
| 2026-05-07 11:34 | 44.51400 | 21.17561 | 41041 ft | 493 kts | 136° |
| 2026-05-07 11:34 | 44.46747 | 21.24636 | 41047 ft | 493 kts | 136° |
| 2026-05-07 11:35 | 44.42104 | 21.31679 | 41053 ft | 492 kts | 136° |
| 2026-05-07 11:35 | 44.37456 | 21.38711 | 41053 ft | 492 kts | 136° |
| 2026-05-07 11:36 | 44.32802 | 21.45735 | 41063 ft | 492 kts | 136° |
| 2026-05-07 11:36 | 44.28156 | 21.52764 | 41065 ft | 492 kts | 136° |
| 2026-05-07 11:37 | 44.23555 | 21.59749 | 41069 ft | 492 kts | 136° |
| 2026-05-07 11:37 | 44.18919 | 21.66770 | 41075 ft | 492 kts | 136° |
| 2026-05-07 11:38 | 44.14267 | 21.73789 | 41080 ft | 491 kts | 136° |
| 2026-05-07 11:38 | 44.09625 | 21.80773 | 41084 ft | 491 kts | 136° |
| 2026-05-07 11:39 | 44.04978 | 21.87748 | 41085 ft | 491 kts | 136° |
| 2026-05-07 11:39 | 44.00326 | 21.94709 | 41080 ft | 491 kts | 136° |
| 2026-05-07 11:40 | 43.95693 | 22.01626 | 41089 ft | 492 kts | 136° |
| 2026-05-07 11:40 | 43.91030 | 22.08572 | 41091 ft | 492 kts | 136° |
| 2026-05-07 11:41 | 43.86355 | 22.15520 | 41092 ft | 492 kts | 136° |
| 2026-05-07 11:41 | 43.81679 | 22.22451 | 41087 ft | 492 kts | 136° |
| 2026-05-07 11:42 | 43.77000 | 22.29371 | 41088 ft | 492 kts | 136° |
| 2026-05-07 11:42 | 43.72312 | 22.36285 | 41092 ft | 492 kts | 136° |
| 2026-05-07 11:43 | 43.68032 | 22.43695 | 41093 ft | 498 kts | 123° |
| 2026-05-07 11:43 | 43.64741 | 22.52064 | 41102 ft | 500 kts | 120° |
| 2026-05-07 11:44 | 43.61615 | 22.60641 | 41089 ft | 500 kts | 119° |
| 2026-05-07 11:44 | 43.58498 | 22.69231 | 41090 ft | 500 kts | 119° |
| 2026-05-07 11:45 | 43.55352 | 22.77800 | 41086 ft | 500 kts | 119° |
| 2026-05-07 11:45 | 43.52183 | 22.86362 | 41089 ft | 501 kts | 119° |
| 2026-05-07 11:46 | 43.49024 | 22.94864 | 41087 ft | 501 kts | 119° |
| 2026-05-07 11:46 | 43.45831 | 23.03430 | 41092 ft | 502 kts | 119° |
| 2026-05-07 11:47 | 43.42638 | 23.11978 | 41085 ft | 502 kts | 119° |
| 2026-05-07 11:47 | 43.39438 | 23.20517 | 41078 ft | 502 kts | 119° |
| 2026-05-07 11:48 | 43.36253 | 23.28988 | 41077 ft | 502 kts | 119° |
| 2026-05-07 11:48 | 43.33043 | 23.37500 | 41071 ft | 502 kts | 119° |
| 2026-05-07 11:49 | 43.29818 | 23.46025 | 41077 ft | 502 kts | 119° |
| 2026-05-07 11:49 | 43.26714 | 23.54207 | 41075 ft | 503 kts | 119° |
| 2026-05-07 14:05 | 43.24282 | 23.60599 | 41110 ft | 503 kts | 119° |
| 2026-05-07 14:06 | 43.21041 | 23.69098 | 41077 ft | 504 kts | 119° |
| 2026-05-07 14:06 | 43.17790 | 23.77601 | 41063 ft | 504 kts | 119° |
| 2026-05-07 14:07 | 43.14551 | 23.86045 | 41083 ft | 504 kts | 120° |
| 2026-05-07 14:07 | 43.11286 | 23.94532 | 41060 ft | 504 kts | 120° |
| 2026-05-07 14:08 | 43.08026 | 24.02978 | 41076 ft | 504 kts | 120° |
| 2026-05-07 14:08 | 43.04744 | 24.11457 | 41074 ft | 504 kts | 120° |
| 2026-05-07 14:09 | 43.01484 | 24.19856 | 41078 ft | 504 kts | 120° |
| 2026-05-07 14:09 | 42.98197 | 24.28297 | 41075 ft | 504 kts | 120° |
| 2026-05-07 14:10 | 42.94893 | 24.36757 | 41068 ft | 504 kts | 120° |
| 2026-05-07 14:10 | 42.91608 | 24.45142 | 41075 ft | 504 kts | 120° |
| 2026-05-07 14:11 | 42.88300 | 24.53564 | 41067 ft | 504 kts | 120° |
| 2026-05-07 14:11 | 42.84986 | 24.61978 | 41065 ft | 502 kts | 120° |
| 2026-05-07 14:12 | 42.82233 | 24.68951 | 41071 ft | 504 kts | 120° |
| 2026-05-07 14:12 | 42.78903 | 24.77357 | 41075 ft | 504 kts | 120° |
| 2026-05-07 14:13 | 42.75024 | 24.87123 | 41070 ft | 504 kts | 120° |
| 2026-05-07 14:13 | 42.72228 | 24.94140 | 41074 ft | 503 kts | 120° |
| 2026-05-07 14:14 | 42.68893 | 25.02493 | 41074 ft | 503 kts | 120° |
| 2026-05-07 14:14 | 42.65544 | 25.10853 | 41073 ft | 503 kts | 120° |
| 2026-05-07 14:15 | 42.62193 | 25.19196 | 41061 ft | 503 kts | 120° |
| 2026-05-07 14:15 | 42.58858 | 25.27473 | 41062 ft | 503 kts | 120° |
| 2026-05-07 14:16 | 42.55493 | 25.35802 | 41068 ft | 503 kts | 120° |
| 2026-05-07 14:16 | 42.52118 | 25.44132 | 40735 ft | 503 kts | 120° |
| 2026-05-07 14:16 | 42.50429 | 25.48293 | 40483 ft | 503 kts | 120° |
| 2026-05-07 14:17 | 42.48740 | 25.52447 | 40244 ft | 503 kts | 120° |
| 2026-05-07 14:17 | 42.47051 | 25.56593 | 40014 ft | 502 kts | 120° |
| 2026-05-07 14:17 | 42.45361 | 25.60737 | 39767 ft | 502 kts | 120° |
| 2026-05-07 14:17 | 42.43675 | 25.64867 | 39527 ft | 501 kts | 120° |
| 2026-05-07 14:18 | 42.41987 | 25.68995 | 39297 ft | 501 kts | 120° |
| 2026-05-07 14:18 | 42.40297 | 25.73120 | 39067 ft | 501 kts | 120° |
| 2026-05-07 14:18 | 42.38605 | 25.77246 | 38837 ft | 501 kts | 120° |
| 2026-05-07 14:18 | 42.36916 | 25.81359 | 38579 ft | 500 kts | 120° |
| 2026-05-07 14:19 | 42.35224 | 25.85472 | 38299 ft | 500 kts | 120° |
| 2026-05-07 14:19 | 42.33530 | 25.89587 | 38005 ft | 501 kts | 120° |
| 2026-05-07 14:19 | 42.31834 | 25.93696 | 37722 ft | 502 kts | 120° |
| 2026-05-07 14:19 | 42.30128 | 25.97825 | 37453 ft | 504 kts | 120° |
| 2026-05-07 14:20 | 42.28425 | 26.01945 | 36866 ft | 501 kts | 120° |
| 2026-05-07 14:20 | 42.26723 | 26.06054 | 36051 ft | 502 kts | 120° |
| 2026-05-07 14:20 | 42.25011 | 26.10182 | 35198 ft | 505 kts | 120° |
| 2026-05-07 14:20 | 42.23308 | 26.14284 | 34366 ft | 509 kts | 120° |
| 2026-05-07 14:21 | 42.21567 | 26.18466 | 33424 ft | 512 kts | 120° |
| 2026-05-07 14:21 | 42.19813 | 26.22672 | 32480 ft | 515 kts | 120° |
| 2026-05-07 14:21 | 42.18056 | 26.26883 | 31585 ft | 516 kts | 120° |
| 2026-05-07 14:21 | 42.16292 | 26.31104 | 30713 ft | 518 kts | 120° |
| 2026-05-07 14:22 | 42.14518 | 26.35343 | 29780 ft | 519 kts | 120° |
| 2026-05-07 14:22 | 42.12745 | 26.39575 | 28878 ft | 518 kts | 120° |
| 2026-05-07 14:22 | 42.10980 | 26.43783 | 28144 ft | 514 kts | 120° |
| 2026-05-07 14:22 | 42.09223 | 26.47965 | 27454 ft | 509 kts | 120° |
| 2026-05-07 14:23 | 42.07487 | 26.52090 | 26783 ft | 505 kts | 120° |
| 2026-05-07 14:23 | 42.05761 | 26.56186 | 26135 ft | 500 kts | 120° |
| 2026-05-07 14:23 | 42.04052 | 26.60237 | 25495 ft | 496 kts | 120° |
| 2026-05-07 14:23 | 42.02350 | 26.64265 | 24873 ft | 491 kts | 120° |
| 2026-05-07 14:24 | 42.00692 | 26.68184 | 24259 ft | 487 kts | 120° |
| 2026-05-07 14:24 | 41.99024 | 26.72122 | 23660 ft | 482 kts | 120° |
| 2026-05-07 14:24 | 41.97366 | 26.76016 | 22981 ft | 477 kts | 120° |
| 2026-05-07 14:24 | 41.95576 | 26.79702 | 22637 ft | 465 kts | 126° |
| 2026-05-07 14:25 | 41.93635 | 26.83100 | 22349 ft | 451 kts | 128° |
| 2026-05-07 14:25 | 41.91705 | 26.86349 | 22089 ft | 439 kts | 129° |
| 2026-05-07 14:25 | 41.89826 | 26.89506 | 21848 ft | 426 kts | 129° |
| 2026-05-07 14:25 | 41.88000 | 26.92573 | 21614 ft | 414 kts | 129° |
| 2026-05-07 14:26 | 41.86217 | 26.95559 | 21229 ft | 407 kts | 129° |
| 2026-05-07 14:26 | 41.84294 | 26.98302 | 20790 ft | 401 kts | 138° |
| 2026-05-07 14:26 | 41.82196 | 27.00752 | 20278 ft | 399 kts | 141° |
| 2026-05-07 14:26 | 41.80075 | 27.03131 | 19796 ft | 395 kts | 141° |
| 2026-05-07 14:27 | 41.77972 | 27.05479 | 19352 ft | 392 kts | 141° |
| 2026-05-07 14:27 | 41.75891 | 27.07805 | 18910 ft | 388 kts | 141° |
| 2026-05-07 14:27 | 41.73821 | 27.10116 | 18459 ft | 384 kts | 141° |
| 2026-05-07 14:27 | 41.71772 | 27.12402 | 17932 ft | 381 kts | 141° |
| 2026-05-07 14:28 | 41.69744 | 27.14665 | 17439 ft | 378 kts | 141° |
| 2026-05-07 14:28 | 41.67736 | 27.16903 | 16942 ft | 374 kts | 141° |
| 2026-05-07 14:28 | 41.65743 | 27.19122 | 16450 ft | 371 kts | 141° |
| 2026-05-07 14:28 | 41.63772 | 27.21309 | 15990 ft | 367 kts | 141° |
| 2026-05-07 14:29 | 41.61812 | 27.23481 | 15499 ft | 364 kts | 141° |
| 2026-05-07 14:29 | 41.59871 | 27.25633 | 15162 ft | 361 kts | 141° |
| 2026-05-07 14:29 | 41.57935 | 27.27783 | 15088 ft | 367 kts | 141° |
| 2026-05-07 14:29 | 41.55931 | 27.30004 | 15085 ft | 380 kts | 141° |
| 2026-05-07 14:30 | 41.53879 | 27.32277 | 15085 ft | 385 kts | 141° |
| 2026-05-07 14:30 | 41.51841 | 27.34534 | 15083 ft | 386 kts | 141° |
| 2026-05-07 14:30 | 41.49750 | 27.36851 | 15071 ft | 386 kts | 141° |
| 2026-05-07 14:30 | 41.47704 | 27.39114 | 14622 ft | 387 kts | 141° |
| 2026-05-07 14:31 | 41.45639 | 27.41404 | 14064 ft | 384 kts | 141° |
| 2026-05-07 14:31 | 41.43540 | 27.43553 | 13717 ft | 378 kts | 144° |
| 2026-05-07 14:31 | 41.41431 | 27.45652 | 13465 ft | 376 kts | 144° |
| 2026-05-07 14:31 | 41.39339 | 27.47719 | 13204 ft | 373 kts | 144° |
| 2026-05-07 14:32 | 41.37189 | 27.49830 | 13143 ft | 396 kts | 144° |
| 2026-05-07 14:32 | 41.34946 | 27.52025 | 12995 ft | 401 kts | 144° |
| 2026-05-07 14:32 | 41.32697 | 27.54223 | 12752 ft | 401 kts | 144° |
| 2026-05-07 14:32 | 41.30448 | 27.56416 | 12496 ft | 400 kts | 144° |
| 2026-05-07 14:33 | 41.28201 | 27.58605 | 12243 ft | 399 kts | 144° |
| 2026-05-07 14:33 | 41.25965 | 27.60780 | 11994 ft | 397 kts | 144° |
| 2026-05-07 14:33 | 41.23739 | 27.62945 | 11750 ft | 396 kts | 144° |
| 2026-05-07 14:33 | 41.21519 | 27.65100 | 11499 ft | 395 kts | 144° |
| 2026-05-07 14:34 | 41.19307 | 27.67246 | 11246 ft | 393 kts | 144° |
| 2026-05-07 14:34 | 41.17100 | 27.69385 | 11011 ft | 392 kts | 144° |
| 2026-05-07 14:34 | 41.14898 | 27.71517 | 10781 ft | 390 kts | 144° |
| 2026-05-07 14:34 | 41.12715 | 27.73629 | 10530 ft | 389 kts | 144° |
| 2026-05-07 14:35 | 41.10538 | 27.75734 | 10295 ft | 387 kts | 144° |
| 2026-05-07 14:35 | 41.08406 | 27.77795 | 10165 ft | 369 kts | 144° |
| 2026-05-07 14:35 | 41.06381 | 27.79752 | 10049 ft | 352 kts | 144° |
| 2026-05-07 14:35 | 41.04477 | 27.81589 | 9914 ft | 335 kts | 145° |
| 2026-05-07 14:36 | 41.02634 | 27.83367 | 9775 ft | 320 kts | 145° |
| 2026-05-07 14:36 | 41.00850 | 27.85085 | 9633 ft | 306 kts | 145° |
| 2026-05-07 14:36 | 40.99186 | 27.86687 | 9495 ft | 296 kts | 145° |
| 2026-05-07 14:36 | 40.97514 | 27.88294 | 9364 ft | 297 kts | 145° |
| 2026-05-07 14:37 | 40.95826 | 27.89916 | 9116 ft | 296 kts | 145° |
| 2026-05-07 14:37 | 40.93243 | 27.94005 | 8604 ft | 295 kts | 106° |
| 2026-05-07 14:37 | 40.93080 | 27.96690 | 8356 ft | 294 kts | 84° |
| 2026-05-07 14:38 | 40.93335 | 27.99361 | 8209 ft | 294 kts | 82° |
| 2026-05-07 14:38 | 40.93575 | 28.02054 | 8140 ft | 294 kts | 84° |
| 2026-05-07 14:38 | 40.93730 | 28.04743 | 7936 ft | 292 kts | 85° |
| 2026-05-07 14:38 | 40.93869 | 28.07423 | 7810 ft | 292 kts | 85° |
| 2026-05-07 14:39 | 40.94015 | 28.10110 | 7680 ft | 293 kts | 85° |
| 2026-05-07 14:39 | 40.94167 | 28.12794 | 7567 ft | 292 kts | 85° |
| 2026-05-07 14:39 | 40.94322 | 28.15473 | 7440 ft | 292 kts | 85° |
| 2026-05-07 14:39 | 40.94478 | 28.18153 | 7319 ft | 292 kts | 85° |
| 2026-05-07 14:40 | 40.94633 | 28.20788 | 7195 ft | 291 kts | 85° |
| 2026-05-07 14:40 | 40.94790 | 28.23470 | 7075 ft | 291 kts | 85° |
| 2026-05-07 14:40 | 40.94946 | 28.26140 | 6928 ft | 291 kts | 85° |
| 2026-05-07 14:40 | 40.95101 | 28.28801 | 6686 ft | 290 kts | 85° |
| 2026-05-07 14:41 | 40.95255 | 28.31452 | 6447 ft | 289 kts | 85° |
| 2026-05-07 14:41 | 40.95409 | 28.34102 | 6205 ft | 288 kts | 85° |
| 2026-05-07 14:41 | 40.95561 | 28.36739 | 5946 ft | 287 kts | 85° |
| 2026-05-07 14:41 | 40.95712 | 28.39371 | 5693 ft | 287 kts | 85° |
| 2026-05-07 14:42 | 40.95863 | 28.42010 | 5453 ft | 287 kts | 85° |
| 2026-05-07 14:42 | 40.96012 | 28.44629 | 5258 ft | 285 kts | 85° |
| 2026-05-07 14:42 | 40.96161 | 28.47252 | 5131 ft | 285 kts | 85° |
| 2026-05-07 14:42 | 40.96309 | 28.49868 | 5011 ft | 285 kts | 85° |
| 2026-05-07 14:43 | 40.96456 | 28.52481 | 4992 ft | 285 kts | 85° |
| 2026-05-07 14:43 | 40.96600 | 28.55056 | 4984 ft | 272 kts | 85° |
| 2026-05-07 14:43 | 40.96734 | 28.57468 | 4981 ft | 255 kts | 85° |
| 2026-05-07 14:43 | 40.96859 | 28.59727 | 4979 ft | 238 kts | 85° |
| 2026-05-07 14:44 | 40.96976 | 28.61841 | 4985 ft | 224 kts | 85° |
| 2026-05-07 14:44 | 40.97088 | 28.63842 | 4976 ft | 212 kts | 84° |
| 2026-05-07 14:44 | 40.97195 | 28.65766 | 4989 ft | 210 kts | 85° |
| 2026-05-07 14:44 | 40.97301 | 28.67688 | 4989 ft | 210 kts | 84° |
| 2026-05-07 14:45 | 40.97408 | 28.69645 | 5000 ft | 216 kts | 85° |
| 2026-05-07 14:45 | 40.97668 | 28.71590 | 4977 ft | 215 kts | 61° |
| 2026-05-07 14:45 | 40.98679 | 28.72906 | 4987 ft | 198 kts | 18° |
| 2026-05-07 14:45 | 40.99937 | 28.73317 | 5004 ft | 180 kts | 0° |
| 2026-05-07 14:46 | 41.01177 | 28.73361 | 4998 ft | 178 kts | 355° |
| 2026-05-07 14:46 | 41.02421 | 28.73336 | 4975 ft | 179 kts | 355° |
| 2026-05-07 14:46 | 41.03661 | 28.73298 | 4785 ft | 178 kts | 354° |
| 2026-05-07 14:46 | 41.04885 | 28.73268 | 4529 ft | 178 kts | 355° |
| 2026-05-07 14:47 | 41.06134 | 28.73241 | 4240 ft | 177 kts | 354° |
| 2026-05-07 14:47 | 41.07339 | 28.73212 | 3978 ft | 177 kts | 354° |
| 2026-05-07 14:47 | 41.08570 | 28.73184 | 3746 ft | 177 kts | 354° |
| 2026-05-07 14:47 | 41.09797 | 28.73158 | 3514 ft | 175 kts | 354° |
| 2026-05-07 14:48 | 41.11022 | 28.73129 | 3283 ft | 175 kts | 353° |
| 2026-05-07 14:48 | 41.12233 | 28.73099 | 3050 ft | 171 kts | 354° |
| 2026-05-07 14:48 | 41.13407 | 28.73073 | 2818 ft | 165 kts | 354° |
| 2026-05-07 14:48 | 41.14530 | 28.73048 | 2617 ft | 161 kts | 354° |
| 2026-05-07 14:49 | 41.15269 | 28.73029 | 2481 ft | 159 kts | 354° |
| 2026-05-07 14:49 | 41.16355 | 28.73004 | 2269 ft | 156 kts | 354° |
| 2026-05-07 14:49 | 41.17440 | 28.72978 | 2071 ft | 155 kts | 355° |
| 2026-05-07 14:49 | 41.18494 | 28.72955 | 1862 ft | 147 kts | 356° |
| 2026-05-07 14:50 | 41.19497 | 28.72932 | 1684 ft | 142 kts | 355° |
| 2026-05-07 14:50 | 41.20471 | 28.72909 | 1466 ft | 137 kts | 356° |
| 2026-05-07 14:50 | 41.21425 | 28.72887 | 1303 ft | 137 kts | 356° |
| 2026-05-07 14:50 | 41.22377 | 28.72862 | 1115 ft | 136 kts | 355° |
| 2026-05-07 14:51 | 41.23338 | 28.72828 | 955 ft | 138 kts | 358° |
| 2026-05-07 14:51 | 41.24271 | 28.72792 | 777 ft | 134 kts | 360° |
| 2026-05-07 14:51 | 41.25208 | 28.72766 | 629 ft | 136 kts | 1° |
| 2026-05-07 14:51 | 41.26144 | 28.72756 | 393 ft | 132 kts | 3° |
| 2026-05-07 14:52 | 41.26987 | 28.72762 | 336 ft | 95 kts | 359° |
| 2026-05-07 14:52 | 41.27415 | 28.72752 | 336 ft | 52 kts | 359° |
| 2026-05-07 14:52 | 41.27834 | 28.72742 | 336 ft | 57 kts | 360° |
| 2026-05-07 14:52 | 41.28067 | 28.72834 | 336 ft | 11 kts | 29° |
| 2026-05-07 14:53 | 41.28089 | 28.72850 | 335 ft | 0 kts | 29° |
| 2026-05-07 14:53 | 41.28124 | 28.72878 | 336 ft | 11 kts | 39° |
| 2026-05-07 14:53 | 41.28126 | 28.72921 | 335 ft | 4 kts | 112° |
| 2026-05-07 14:54 | 41.28090 | 28.72960 | 335 ft | 10 kts | 169° |
| 2026-05-07 14:54 | 41.27984 | 28.72962 | 337 ft | 20 kts | 179° |
| 2026-05-07 14:54 | 41.27814 | 28.72965 | 338 ft | 28 kts | 179° |
| 2026-05-07 14:54 | 41.27594 | 28.72971 | 335 ft | 34 kts | 179° |
| 2026-05-07 14:55 | 41.27334 | 28.72978 | 336 ft | 39 kts | 179° |
| 2026-05-07 14:55 | 41.27114 | 28.72983 | 338 ft | 22 kts | 180° |
| 2026-05-07 14:55 | 41.26991 | 28.72987 | 337 ft | 11 kts | 168° |
| 2026-05-07 14:55 | 41.26956 | 28.73052 | 337 ft | 10 kts | 97° |
| 2026-05-07 14:56 | 41.26952 | 28.73160 | 340 ft | 14 kts | 92° |
| 2026-05-07 14:56 | 41.26955 | 28.73300 | 338 ft | 17 kts | 88° |
| 2026-05-07 14:56 | 41.26959 | 28.73467 | 336 ft | 19 kts | 89° |
| 2026-05-07 14:56 | 41.26962 | 28.73659 | 337 ft | 22 kts | 88° |
| 2026-05-07 14:57 | 41.26964 | 28.73800 | 340 ft | 11 kts | 89° |
| 2026-05-07 14:57 | 41.26926 | 28.73865 | 335 ft | 11 kts | 168° |
| 2026-05-07 14:57 | 41.26833 | 28.73874 | 336 ft | 13 kts | 178° |
| 2026-05-07 14:57 | 41.26828 | 28.73874 | 338 ft | 0 kts | 178° |
| 2026-05-07 14:58 | 41.26811 | 28.73861 | 336 ft | 9 kts | 215° |
| 2026-05-07 14:58 | 41.26791 | 28.73792 | 336 ft | 2 kts | 268° |
| 2026-05-07 14:58 | 41.26791 | 28.73761 | 336 ft | 0 kts | 270° |